Time;durP1;ratioP1;P1;durP2;ratioP2;P2;SDS_P1;SDS_P2;PMS_P1;PMS_P2;Temp;Humidity;BMP_temperature;BMP_pressure;BME280_temperature;BME280_humidity;BME280_pressure;Samples;Min_cycle;Max_cycle;Signal;HPM_P1;HPM_P2
2023/10/27 00:02:11;;;;;;;6.60;2.60;;;;;;;13.86;74.86;97075.84;233988;215;149890;-57
2023/10/27 00:07:14;;;;;;;3.90;2.10;;;;;;;13.93;74.89;97070.27;234105;215;140580;-57
2023/10/27 00:12:17;;;;;;;4.60;2.50;;;;;;;13.95;75.00;97063.83;234187;215;138021;-57
2023/10/27 00:17:21;;;;;;;4.10;1.90;;;;;;;13.94;75.29;97060.98;234226;215;150486;-57
2023/10/27 00:22:25;;;;;;;3.50;2.00;;;;;;;13.90;75.46;97060.98;234286;216;139120;-57
2023/10/27 00:27:28;;;;;;;4.60;2.10;;;;;;;13.89;75.72;97068.29;234306;215;138226;-57
2023/10/27 00:32:31;;;;;;;3.30;1.80;;;;;;;13.89;75.94;97070.43;234042;215;150697;-59
2023/10/27 00:37:37;;;;;;;4.10;2.20;;;;;;;13.91;76.09;97067.86;234305;215;138375;-58
2023/10/27 00:42:41;;;;;;;4.20;2.10;;;;;;;13.92;76.27;97071.44;234375;215;137839;-57
2023/10/27 00:47:44;;;;;;;3.40;1.80;;;;;;;13.91;76.34;97076.55;234448;215;149113;-59
2023/10/27 00:52:49;;;;;;;3.10;2.00;;;;;;;13.89;76.44;97071.67;234232;215;138764;-57
2023/10/27 00:57:52;;;;;;;2.80;1.70;;;;;;;13.87;76.66;97062.12;234276;215;139381;-59
2023/10/27 01:02:55;;;;;;;5.30;1.90;;;;;;;13.88;76.83;97049.80;234246;215;149387;-57
2023/10/27 01:08:00;;;;;;;2.10;1.60;;;;;;;13.92;76.98;97036.52;233615;215;140101;-59
2023/10/27 01:13:03;;;;;;;2.70;1.60;;;;;;;13.99;77.00;97030.27;234291;215;137812;-59
2023/10/27 01:18:06;;;;;;;3.20;1.90;;;;;;;14.02;76.86;97016.13;234412;215;150641;-59
2023/10/27 01:23:10;;;;;;;2.20;1.60;;;;;;;14.00;76.88;97018.64;234286;215;139891;-58
2023/10/27 01:28:13;;;;;;;1.60;1.40;;;;;;;13.98;76.97;97018.14;234376;215;140652;-59
2023/10/27 01:33:16;;;;;;;1.80;1.50;;;;;;;14.00;76.95;97024.09;234321;214;149114;-58
2023/10/27 01:38:19;;;;;;;2.90;1.50;;;;;;;14.02;77.07;97025.12;234216;215;139098;-58
2023/10/27 01:43:22;;;;;;;2.30;1.40;;;;;;;14.05;77.17;97011.78;234228;215;137730;-59
2023/10/27 01:48:25;;;;;;;2.60;1.50;;;;;;;14.06;77.20;97000.42;234429;215;149995;-59
2023/10/27 01:53:29;;;;;;;4.10;1.70;;;;;;;14.03;77.13;96993.36;234466;215;138891;-59
2023/10/27 01:58:32;;;;;;;2.00;1.80;;;;;;;13.97;77.14;96988.61;234320;215;139096;-60
2023/10/27 02:03:35;;;;;;;2.30;1.50;;;;;;;13.96;77.08;96982.64;234237;215;149525;-60
2023/10/27 02:08:38;;;;;;;2.20;1.50;;;;;;;13.94;76.92;96979.25;234320;215;139304;-58
2023/10/27 02:13:42;;;;;;;3.80;1.40;;;;;;;13.90;76.81;96973.97;233849;215;137494;-58
2023/10/27 02:18:45;;;;;;;2.60;1.60;;;;;;;13.86;76.62;96966.81;234229;215;149525;-58
2023/10/27 02:23:48;;;;;;;2.20;1.30;;;;;;;13.79;76.51;96949.61;234006;216;138699;-59
2023/10/27 02:28:51;;;;;;;3.50;1.50;;;;;;;13.71;76.56;96952.73;233958;215;138307;-58
2023/10/27 02:33:54;;;;;;;2.60;1.70;;;;;;;13.67;76.64;96948.23;234333;215;149260;-56
2023/10/27 02:38:58;;;;;;;2.90;1.80;;;;;;;13.66;76.78;96946.66;234282;215;140169;-58
2023/10/27 02:44:03;;;;;;;2.90;1.70;;;;;;;13.61;76.87;96949.36;234358;215;137772;-59
2023/10/27 02:49:06;;;;;;;3.90;2.10;;;;;;;13.56;77.02;96951.52;234333;215;149462;-59
2023/10/27 02:54:10;;;;;;;4.60;2.00;;;;;;;13.50;77.03;96955.89;234496;215;140583;-59
2023/10/27 02:59:13;;;;;;;3.90;1.80;;;;;;;13.37;76.91;96953.41;234329;215;139915;-58
2023/10/27 03:04:16;;;;;;;5.20;2.00;;;;;;;13.29;77.24;96950.68;234397;215;149917;-59
2023/10/27 03:09:19;;;;;;;5.50;2.40;;;;;;;13.25;77.30;96949.09;234326;215;138874;-58
2023/10/27 03:14:23;;;;;;;4.70;2.40;;;;;;;13.28;77.62;96946.36;234200;215;136857;-58
2023/10/27 03:19:26;;;;;;;3.40;2.10;;;;;;;13.30;77.79;96944.70;234340;215;149521;-58
2023/10/27 03:24:29;;;;;;;6.70;2.10;;;;;;;13.29;77.99;96944.52;234278;215;139959;-58
2023/10/27 03:29:33;;;;;;;5.80;2.00;;;;;;;13.33;78.12;96935.69;234494;215;139423;-57
2023/10/27 03:34:36;;;;;;;3.70;2.10;;;;;;;13.35;78.01;96930.81;234302;215;151111;-59
2023/10/27 03:39:40;;;;;;;4.30;2.50;;;;;;;13.36;77.88;96931.92;233725;215;139621;-58
2023/10/27 03:44:43;;;;;;;3.70;2.50;;;;;;;13.35;77.73;96930.98;234320;215;138714;-58
2023/10/27 03:49:46;;;;;;;4.90;2.90;;;;;;;13.30;77.70;96930.58;234374;215;149419;-58
2023/10/27 03:54:49;;;;;;;4.70;3.00;;;;;;;13.33;77.79;96922.13;234287;215;139227;-58
2023/10/27 03:59:52;;;;;;;4.70;3.10;;;;;;;13.29;77.49;96916.19;234038;214;138731;-58
2023/10/27 04:04:56;;;;;;;6.00;3.50;;;;;;;13.27;77.86;96920.10;234253;215;150590;-58
2023/10/27 04:09:59;;;;;;;5.40;3.90;;;;;;;13.28;77.55;96919.79;234330;215;139830;-57
2023/10/27 04:15:03;;;;;;;6.90;3.80;;;;;;;13.27;77.57;96917.05;234316;215;137520;-58
2023/10/27 04:20:07;;;;;;;5.10;3.90;;;;;;;13.22;77.52;96912.23;234368;215;149426;-56
2023/10/27 04:25:10;;;;;;;6.60;3.70;;;;;;;13.16;77.71;96904.52;234320;215;138737;-56
2023/10/27 04:30:15;;;;;;;5.30;4.20;;;;;;;13.15;78.20;96905.11;234361;215;140803;-58
2023/10/27 04:35:18;;;;;;;9.40;4.00;;;;;;;13.27;78.53;96901.95;234216;215;149795;-57
2023/10/27 04:40:22;;;;;;;5.80;4.30;;;;;;;13.40;78.28;96891.65;234052;215;140860;-58
2023/10/27 04:45:26;;;;;;;6.30;4.40;;;;;;;13.40;78.13;96895.38;234276;215;137797;-57
2023/10/27 04:50:32;;;;;;;7.00;4.80;;;;;;;13.38;78.21;96891.44;234225;215;150129;-58
2023/10/27 04:55:35;;;;;;;43.00;31.20;;;;;;;13.41;78.61;96879.02;234267;215;139959;-59
2023/10/27 05:00:39;;;;;;;17.90;14.50;;;;;;;13.39;78.75;96881.56;234289;215;139157;-58
2023/10/27 05:05:42;;;;;;;5.90;3.70;;;;;;;13.42;78.86;96873.92;234320;215;149370;-59
2023/10/27 05:10:47;;;;;;;122.30;94.80;;;;;;;13.60;78.92;96860.76;234311;215;140671;-58
2023/10/27 05:15:54;;;;;;;8.70;6.30;;;;;;;13.76;78.62;96861.70;234288;215;137588;-58
2023/10/27 05:20:57;;;;;;;4.60;3.80;;;;;;;13.86;78.81;96859.96;234305;215;149806;-59
2023/10/27 05:26:01;;;;;;;337.30;285.30;;;;;;;13.93;77.89;96854.78;233193;215;139635;-58
2023/10/27 05:31:04;;;;;;;67.30;52.90;;;;;;;13.87;77.76;96852.80;234271;215;138507;-57
2023/10/27 05:36:07;;;;;;;11.70;6.70;;;;;;;13.86;77.52;96855.57;234465;215;150615;-58
2023/10/27 05:41:11;;;;;;;12.60;7.30;;;;;;;13.82;77.23;96858.63;234231;215;139338;-59
2023/10/27 05:46:14;;;;;;;13.40;7.10;;;;;;;13.79;76.83;96860.23;234202;215;138627;-58
2023/10/27 05:51:17;;;;;;;10.10;5.20;;;;;;;13.73;76.71;96858.08;234305;215;149484;-57
2023/10/27 05:56:20;;;;;;;7.60;4.50;;;;;;;13.66;76.68;96849.20;234238;215;139700;-58
2023/10/27 06:01:23;;;;;;;7.10;3.90;;;;;;;13.61;76.71;96836.64;234371;215;136998;-57
2023/10/27 06:06:27;;;;;;;10.30;3.90;;;;;;;13.53;76.83;96835.70;234481;215;149205;-58
2023/10/27 06:11:30;;;;;;;7.20;4.10;;;;;;;13.49;77.04;96830.91;234399;215;138784;-58
2023/10/27 06:16:34;;;;;;;76.80;58.00;;;;;;;13.52;77.34;96831.87;234181;215;138635;-57
2023/10/27 06:21:37;;;;;;;11.70;3.70;;;;;;;13.60;77.24;96839.24;234174;215;149285;-57
2023/10/27 06:26:40;;;;;;;9.20;4.00;;;;;;;13.62;77.09;96844.46;234306;215;139056;-56
2023/10/27 06:31:43;;;;;;;7.70;3.00;;;;;;;13.62;76.89;96851.61;234329;215;138909;-57
2023/10/27 06:36:47;;;;;;;5.90;3.30;;;;;;;13.58;77.02;96848.04;234378;215;149966;-57
2023/10/27 06:41:51;;;;;;;10.50;3.50;;;;;;;13.55;77.10;96838.91;234267;215;141472;-57
2023/10/27 06:46:54;;;;;;;10.80;3.80;;;;;;;13.56;77.29;96838.74;234323;215;138436;-57
2023/10/27 06:51:57;;;;;;;5.60;3.30;;;;;;;13.61;77.23;96840.23;234264;215;149224;-58
2023/10/27 06:57:00;;;;;;;6.20;3.00;;;;;;;13.66;77.22;96839.23;234211;215;141255;-57
2023/10/27 07:02:04;;;;;;;192.00;167.20;;;;;;;13.71;77.17;96840.34;234343;215;136994;-58
2023/10/27 07:07:07;;;;;;;59.60;43.80;;;;;;;13.76;77.53;96840.67;234281;213;149451;-60
2023/10/27 07:12:29;;;;;;;9.00;3.20;;;;;;;13.83;77.30;96833.23;234261;215;140850;-59
2023/10/27 07:17:32;;;;;;;4.70;3.20;;;;;;;13.87;76.99;96824.08;234407;215;138023;-59
2023/10/27 07:22:36;;;;;;;5.30;3.10;;;;;;;13.92;76.81;96830.82;234261;215;151981;-59
2023/10/27 07:27:39;;;;;;;5.80;3.60;;;;;;;13.94;76.75;96833.28;234126;215;139900;-59
2023/10/27 07:32:43;;;;;;;7.20;3.40;;;;;;;13.98;76.57;96819.87;234202;215;138329;-60
2023/10/27 07:37:46;;;;;;;8.20;3.00;;;;;;;13.98;76.50;96811.52;234181;215;149324;-56
2023/10/27 07:42:49;;;;;;;8.60;3.30;;;;;;;13.99;76.54;96807.27;234330;215;138987;-58
2023/10/27 07:47:52;;;;;;;120.90;96.30;;;;;;;14.04;76.34;96807.02;234280;215;141409;-59
2023/10/27 07:52:56;;;;;;;89.80;74.60;;;;;;;14.13;76.47;96805.14;234240;215;149099;-58
2023/10/27 07:57:59;;;;;;;6.60;4.30;;;;;;;14.21;76.08;96800.63;234303;215;139798;-59
2023/10/27 08:03:02;;;;;;;7.40;3.40;;;;;;;14.20;75.81;96795.46;234188;215;137666;-58
2023/10/27 08:08:06;;;;;;;8.40;3.50;;;;;;;14.16;75.73;96786.38;234337;215;150550;-58
2023/10/27 08:13:09;;;;;;;15.70;9.50;;;;;;;14.17;75.77;96782.23;234262;214;141659;-59
2023/10/27 08:18:15;;;;;;;9.70;3.00;;;;;;;14.24;75.92;96785.20;234386;215;142231;-59
2023/10/27 08:23:20;;;;;;;7.30;2.60;;;;;;;14.26;75.74;96786.23;234239;215;150393;-55
2023/10/27 08:28:24;;;;;;;3.70;2.30;;;;;;;14.27;75.94;96782.39;234343;215;138906;-58
2023/10/27 08:33:27;;;;;;;5.00;2.40;;;;;;;14.31;75.82;96773.48;234330;215;137017;-57
2023/10/27 08:38:32;;;;;;;5.00;2.40;;;;;;;14.34;75.72;96768.84;234227;215;149214;-59
2023/10/27 08:43:38;;;;;;;;;;;;;;;14.35;75.59;96764.79;234227;215;139274;-58
2023/10/27 08:48:42;;;;;;;6.00;2.40;;;;;;;14.39;75.69;96765.48;234387;214;133105;-58
2023/10/27 08:53:46;;;;;;;3.20;2.10;;;;;;;14.43;75.73;96753.52;233919;215;150361;-57
2023/10/27 08:58:51;;;;;;;5.90;2.50;;;;;;;14.47;75.75;96746.88;234222;215;140511;-58
2023/10/27 09:04:09;;;;;;;;;;;;;;;14.56;76.68;96742.69;234203;215;137769;-57
2023/10/27 09:09:14;;;;;;;7.20;4.00;;;;;;;14.86;78.39;96738.65;234048;215;149867;-56
2023/10/27 09:14:32;;;;;;;3.50;2.20;;;;;;;14.96;75.34;96736.80;234015;215;138694;-60
2023/10/27 09:19:36;;;;;;;4.80;2.40;;;;;;;14.81;75.01;96729.86;234111;215;137157;-60
2023/10/27 09:24:39;;;;;;;4.20;2.20;;;;;;;14.72;74.99;96729.38;234178;215;150919;-59
2023/10/27 09:29:42;;;;;;;54.00;39.70;;;;;;;14.64;75.19;96724.36;234205;215;141292;-61
2023/10/27 09:34:46;;;;;;;7.60;3.90;;;;;;;14.65;76.05;96729.98;234164;215;138917;-58
2023/10/27 09:39:50;;;;;;;6.50;2.70;;;;;;;14.60;75.75;96721.20;234200;215;149378;-54
2023/10/27 09:45:13;;;;;;;5.10;2.60;;;;;;;14.56;75.86;96716.42;234161;215;138853;-56
2023/10/27 09:50:19;;;;;;;5.30;2.90;;;;;;;14.56;76.04;96713.75;234199;215;139163;-55
2023/10/27 09:55:24;;;;;;;4.90;2.90;;;;;;;14.55;76.07;96706.20;234087;215;150119;-57
2023/10/27 10:00:31;;;;;;;4.70;2.80;;;;;;;14.53;76.14;96696.04;234360;215;141527;-55
2023/10/27 10:06:11;;;;;;;159.10;133.30;;;;;;;14.54;76.64;96685.77;234293;215;137393;-55
2023/10/27 10:11:16;;;;;;;8.60;5.50;;;;;;;14.56;76.96;96677.89;234231;215;149378;-55
2023/10/27 10:16:20;;;;;;;15.70;9.20;;;;;;;14.55;76.67;96671.36;234153;215;140070;-57
2023/10/27 10:21:43;;;;;;;4.70;3.40;;;;;;;14.54;76.71;96662.79;234257;215;137568;-57
2023/10/27 10:27:10;;;;;;;5.50;3.30;;;;;;;14.55;76.90;96647.08;234211;215;150218;-54
2023/10/27 10:32:33;;;;;;;4.70;3.50;;;;;;;14.52;76.84;96629.96;234331;215;140404;-54
2023/10/27 10:37:36;;;;;;;6.20;3.60;;;;;;;14.46;76.95;96613.56;234290;214;137912;-57
2023/10/27 10:43:26;;;;;;;4.90;3.50;;;;;;;14.41;77.05;96607.17;234348;215;150185;-56
2023/10/27 10:48:33;;;;;;;7.40;3.40;;;;;;;14.42;77.29;96589.75;234297;215;139935;-54
2023/10/27 10:53:37;;;;;;;6.50;3.60;;;;;;;14.43;77.28;96579.23;234516;215;138592;-54
2023/10/27 10:58:40;;;;;;;6.30;3.60;;;;;;;14.42;77.43;96580.21;234304;215;149780;-56
2023/10/27 11:03:49;;;;;;;8.20;4.20;;;;;;;14.38;77.46;96568.73;234209;215;139702;-53
2023/10/27 11:08:53;;;;;;;9.00;4.70;;;;;;;14.36;77.67;96554.54;234393;215;137727;-56
2023/10/27 11:13:57;;;;;;;7.10;3.90;;;;;;;14.32;77.85;96548.62;234239;215;150622;-56
2023/10/27 11:19:02;;;;;;;6.00;4.00;;;;;;;14.31;78.08;96537.16;234282;215;139492;-56
2023/10/27 11:24:06;;;;;;;;;;;;;;;14.34;78.39;96529.88;234197;215;139111;-55
2023/10/27 11:29:09;;;;;;;131.80;93.70;;;;;;;14.46;78.76;96518.80;234130;215;150382;-50
2023/10/27 11:34:21;;;;;;;13.20;6.80;;;;;;;14.52;78.09;96510.81;234042;213;138825;-55
2023/10/27 11:39:25;;;;;;;6.80;4.50;;;;;;;14.45;78.02;96502.52;234166;215;138643;-54
2023/10/27 11:44:35;;;;;;;63.40;50.50;;;;;;;14.40;78.45;96500.72;234199;215;150107;-56
2023/10/27 11:49:38;;;;;;;9.50;6.30;;;;;;;14.46;78.83;96495.65;234189;215;138648;-55
2023/10/27 11:54:41;;;;;;;8.00;6.00;;;;;;;14.47;78.39;96496.08;233887;215;137335;-60
2023/10/27 11:59:46;;;;;;;11.20;6.40;;;;;;;14.48;78.36;96492.77;234039;215;149538;-56
2023/10/27 12:04:50;;;;;;;9.20;6.50;;;;;;;14.47;78.38;96490.70;234129;215;138888;-56
2023/10/27 12:09:54;;;;;;;432.10;345.40;;;;;;;14.43;78.49;96493.56;234185;214;137127;-58
2023/10/27 12:14:57;;;;;;;9.40;7.50;;;;;;;14.50;79.37;96500.02;234192;215;149031;-56
2023/10/27 12:20:00;;;;;;;9.30;6.40;;;;;;;14.53;78.84;96498.59;234242;215;139843;-59
2023/10/27 12:25:05;;;;;;;10.00;7.10;;;;;;;14.52;78.85;96496.56;234276;215;137390;-56
2023/10/27 12:30:10;;;;;;;9.00;6.50;;;;;;;14.53;78.88;96495.35;234393;215;150702;-58
2023/10/27 12:35:13;;;;;;;8.80;6.90;;;;;;;14.53;78.85;96488.75;234196;215;139429;-56
2023/10/27 12:40:17;;;;;;;10.50;6.40;;;;;;;14.51;78.93;96483.78;234301;215;137730;-57
2023/10/27 12:45:20;;;;;;;9.60;6.20;;;;;;;14.47;79.10;96474.43;234248;215;149077;-55
2023/10/27 12:50:23;;;;;;;7.90;5.80;;;;;;;14.46;79.32;96462.96;234056;215;139800;-56
2023/10/27 12:55:27;;;;;;;7.90;6.40;;;;;;;14.52;79.32;96448.02;233826;215;138405;-54
2023/10/27 13:00:31;;;;;;;9.90;6.60;;;;;;;14.56;79.34;96437.05;234301;215;150310;-58
2023/10/27 13:05:39;;;;;;;15.70;10.50;;;;;;;14.57;79.31;96425.08;234391;215;138781;-58
2023/10/27 13:10:43;;;;;;;7.60;5.90;;;;;;;14.58;79.21;96418.01;234293;215;138446;-57
2023/10/27 13:15:48;;;;;;;8.10;5.20;;;;;;;14.57;79.22;96415.11;234299;215;149651;-56
2023/10/27 13:20:51;;;;;;;5.20;4.60;;;;;;;14.55;79.35;96413.45;234440;215;138877;-54
2023/10/27 13:26:01;;;;;;;5.60;5.00;;;;;;;14.58;79.48;96408.75;234322;215;137796;-56
2023/10/27 13:31:05;;;;;;;6.10;5.30;;;;;;;14.61;79.43;96406.60;234369;215;149931;-55
2023/10/27 13:36:11;;;;;;;6.80;5.30;;;;;;;14.63;79.42;96403.12;234422;215;139698;-57
2023/10/27 13:41:20;;;;;;;7.20;5.50;;;;;;;14.64;79.47;96399.90;234262;215;137724;-54
2023/10/27 13:46:26;;;;;;;5.00;4.50;;;;;;;14.62;79.40;96399.73;234251;215;150353;-54
2023/10/27 13:51:29;;;;;;;5.00;4.40;;;;;;;14.59;79.40;96396.36;234295;215;139831;-57
2023/10/27 13:56:34;;;;;;;5.30;4.80;;;;;;;14.61;79.52;96402.25;234235;215;138673;-57
2023/10/27 14:01:39;;;;;;;5.50;4.90;;;;;;;14.65;79.41;96410.41;234306;215;150687;-57
2023/10/27 14:06:49;;;;;;;6.10;4.90;;;;;;;14.64;79.33;96413.20;234265;215;139519;-54
2023/10/27 14:11:52;;;;;;;5.80;5.10;;;;;;;14.60;79.31;96413.27;234378;215;138401;-55
2023/10/27 14:16:57;;;;;;;7.80;4.70;;;;;;;14.58;79.51;96409.94;233966;215;149627;-57
2023/10/27 14:22:01;;;;;;;5.40;4.80;;;;;;;14.55;79.52;96401.95;234165;215;139553;-57
2023/10/27 14:27:06;;;;;;;6.10;4.80;;;;;;;14.60;79.65;96415.67;234294;215;137735;-57
2023/10/27 14:32:09;;;;;;;7.60;5.50;;;;;;;14.63;79.59;96419.96;234210;215;150749;-57
2023/10/27 14:37:13;;;;;;;6.20;4.70;;;;;;;14.60;79.60;96437.77;234245;215;138863;-56
2023/10/27 14:42:16;;;;;;;5.90;5.10;;;;;;;14.59;79.64;96447.83;234384;215;136875;-58
2023/10/27 14:47:19;;;;;;;9.10;6.00;;;;;;;14.60;79.63;96443.14;234293;209;149211;-57
2023/10/27 14:52:37;;;;;;;8.60;5.50;;;;;;;14.58;79.71;96434.23;234258;215;139948;-57
2023/10/27 14:57:41;;;;;;;8.40;5.80;;;;;;;14.64;79.75;96434.92;234286;215;140181;-57
2023/10/27 15:02:44;;;;;;;6.60;5.20;;;;;;;14.65;79.60;96435.58;234287;215;149084;-57
2023/10/27 15:07:49;;;;;;;6.90;5.30;;;;;;;14.64;79.44;96441.06;234278;215;139738;-58
2023/10/27 15:12:52;;;;;;;7.40;5.10;;;;;;;14.61;79.52;96449.05;234277;215;137437;-57
2023/10/27 15:17:55;;;;;;;7.80;4.70;;;;;;;14.58;79.66;96452.40;234490;215;150993;-56
2023/10/27 15:22:59;;;;;;;6.80;5.20;;;;;;;14.57;79.70;96462.52;234307;215;138775;-55
2023/10/27 15:28:02;;;;;;;6.70;5.00;;;;;;;14.58;79.60;96473.81;234365;215;137774;-57
2023/10/27 15:33:06;;;;;;;6.50;4.90;;;;;;;14.58;79.51;96481.01;234272;215;149033;-55
2023/10/27 15:38:09;;;;;;;6.10;5.10;;;;;;;14.58;79.42;96487.23;234328;215;138712;-55
2023/10/27 15:43:12;;;;;;;6.00;4.80;;;;;;;14.55;79.38;96492.58;234270;215;136973;-56
2023/10/27 15:48:15;;;;;;;5.60;4.50;;;;;;;14.54;79.30;96498.78;234381;215;149241;-55
2023/10/27 15:53:19;;;;;;;4.80;4.30;;;;;;;14.54;79.18;96510.92;234299;215;138102;-54
2023/10/27 15:58:23;;;;;;;6.20;4.00;;;;;;;14.51;78.99;96513.09;234217;215;138861;-55
2023/10/27 16:03:30;;;;;;;6.20;3.60;;;;;;;14.40;78.95;96525.38;234266;215;149933;-54
2023/10/27 16:08:33;;;;;;;4.50;3.80;;;;;;;14.33;79.24;96537.14;234136;215;138996;-55
2023/10/27 16:13:37;;;;;;;5.20;3.50;;;;;;;14.27;79.21;96549.03;234201;215;138337;-52
2023/10/27 16:18:40;;;;;;;4.40;3.30;;;;;;;14.22;79.19;96555.19;234230;215;150876;-55
2023/10/27 16:23:43;;;;;;;3.40;3.00;;;;;;;14.23;79.20;96564.70;234331;215;138630;-57
2023/10/27 16:28:49;;;;;;;4.60;3.30;;;;;;;14.21;79.00;96571.55;234066;216;137071;-56
2023/10/27 16:33:53;;;;;;;5.10;3.50;;;;;;;14.12;78.91;96590.13;234243;215;150493;-55
2023/10/27 16:38:56;;;;;;;5.10;4.10;;;;;;;14.05;78.97;96601.59;234361;215;139500;-54
2023/10/27 16:43:59;;;;;;;6.40;4.20;;;;;;;13.95;79.15;96612.30;234333;215;137806;-57
2023/10/27 16:49:03;;;;;;;6.60;3.30;;;;;;;13.86;79.42;96616.90;234356;214;150591;-57
2023/10/27 16:54:07;;;;;;;5.50;4.20;;;;;;;13.82;79.75;96626.45;234469;215;139115;-55
2023/10/27 16:59:10;;;;;;;4.80;3.70;;;;;;;13.82;79.82;96637.30;234286;215;137930;-53
2023/10/27 17:04:13;;;;;;;5.40;3.80;;;;;;;13.85;79.73;96643.02;234274;215;150054;-52
2023/10/27 17:09:17;;;;;;;5.70;3.70;;;;;;;13.77;79.60;96653.40;234207;215;138790;-54
2023/10/27 17:14:20;;;;;;;5.10;4.20;;;;;;;13.74;79.59;96663.55;234197;215;137816;-55
2023/10/27 17:19:23;;;;;;;5.30;3.60;;;;;;;13.70;79.62;96668.73;234104;215;149874;-55
2023/10/27 17:24:27;;;;;;;4.40;3.40;;;;;;;13.70;79.69;96678.27;234373;215;139601;-56
2023/10/27 17:29:31;;;;;;;5.70;3.30;;;;;;;13.71;79.42;96685.63;234413;214;137029;-57
2023/10/27 17:34:34;;;;;;;4.80;3.50;;;;;;;13.68;79.37;96697.58;234127;215;150666;-57
2023/10/27 17:39:37;;;;;;;4.80;3.40;;;;;;;13.65;79.46;96708.41;233690;215;139650;-57
2023/10/27 17:44:41;;;;;;;7.30;3.70;;;;;;;13.62;79.43;96718.91;233869;215;138357;-56
2023/10/27 17:49:45;;;;;;;4.50;3.70;;;;;;;13.57;79.59;96727.61;234250;215;150945;-59
2023/10/27 17:54:49;;;;;;;5.20;3.90;;;;;;;13.60;79.56;96731.58;234182;215;139751;-60
2023/10/27 17:59:52;;;;;;;5.20;3.90;;;;;;;13.57;79.41;96736.23;234348;215;138145;-60
2023/10/27 18:04:56;;;;;;;6.80;4.90;;;;;;;13.53;79.58;96742.15;234145;215;149307;-60
2023/10/27 18:10:00;;;;;;;8.00;5.10;;;;;;;13.49;79.53;96749.55;234271;215;138723;-59
2023/10/27 18:15:04;;;;;;;6.00;4.60;;;;;;;13.49;79.66;96751.02;234301;215;139182;-61
2023/10/27 18:20:08;;;;;;;6.30;4.40;;;;;;;13.50;79.58;96760.86;234420;215;149573;-59
2023/10/27 18:25:11;;;;;;;7.10;5.10;;;;;;;13.51;79.62;96758.98;233936;215;140197;-59
2023/10/27 18:30:14;;;;;;;6.10;4.20;;;;;;;13.45;79.49;96762.98;234449;215;138512;-57
2023/10/27 18:35:18;;;;;;;7.00;4.10;;;;;;;13.42;79.50;96769.32;234264;215;150051;-57
2023/10/27 18:40:23;;;;;;;6.40;4.00;;;;;;;13.37;79.52;96783.46;234260;214;139442;-51
2023/10/27 18:45:26;;;;;;;6.50;3.70;;;;;;;13.33;79.56;96793.50;234200;215;140451;-55
2023/10/27 18:50:29;;;;;;;4.70;3.80;;;;;;;13.35;79.62;96792.80;234257;215;149785;-56
2023/10/27 18:55:34;;;;;;;7.10;3.90;;;;;;;13.38;79.45;96792.33;234281;215;139995;-55
2023/10/27 19:00:41;;;;;;;5.50;3.80;;;;;;;13.37;79.32;96801.69;234421;215;138177;-57
2023/10/27 19:05:44;;;;;;;6.30;4.10;;;;;;;13.27;79.33;96813.09;234459;214;149753;-54
2023/10/27 19:10:47;;;;;;;6.20;3.80;;;;;;;13.20;79.68;96820.02;234318;215;139360;-53
2023/10/27 19:15:51;;;;;;;5.70;3.60;;;;;;;13.20;79.67;96832.34;234337;215;140229;-56
2023/10/27 19:21:26;;;;;;;5.70;4.00;;;;;;;13.20;79.51;96845.85;234406;215;150659;-55
2023/10/27 19:26:30;;;;;;;5.70;4.20;;;;;;;13.23;79.46;96852.77;234226;215;139687;-56
2023/10/27 19:31:33;;;;;;;7.20;3.90;;;;;;;13.23;79.34;96857.98;234294;214;138128;-57
2023/10/27 19:36:37;;;;;;;7.00;4.30;;;;;;;13.19;79.23;96870.13;233909;215;150307;-55
2023/10/27 19:41:41;;;;;;;6.90;4.80;;;;;;;13.15;79.51;96881.52;234326;215;138893;-54
2023/10/27 19:46:44;;;;;;;5.50;4.60;;;;;;;13.11;79.47;96880.60;234303;215;138747;-54
2023/10/27 19:51:47;;;;;;;7.00;4.70;;;;;;;13.15;79.49;96890.66;234129;215;149125;-55
2023/10/27 19:56:50;;;;;;;7.60;5.10;;;;;;;13.12;79.20;96894.79;234220;215;139272;-54
2023/10/27 20:01:54;;;;;;;7.10;5.30;;;;;;;13.07;79.22;96896.39;234259;215;137065;-57
2023/10/27 20:06:57;;;;;;;8.80;5.50;;;;;;;13.02;79.22;96898.34;234315;215;150174;-57
2023/10/27 20:12:00;;;;;;;7.90;5.30;;;;;;;12.97;79.29;96907.54;234127;215;138702;-55
2023/10/27 20:17:06;;;;;;;7.00;4.90;;;;;;;12.95;79.34;96909.88;234231;215;138516;-55
2023/10/27 20:22:09;;;;;;;9.30;5.70;;;;;;;12.96;79.26;96913.16;234219;215;149504;-56
2023/10/27 20:27:14;;;;;;;8.20;6.10;;;;;;;12.99;79.32;96926.75;233914;215;139398;-55
2023/10/27 20:32:18;;;;;;;9.40;6.30;;;;;;;13.01;79.24;96931.71;234250;215;137934;-55
2023/10/27 20:37:21;;;;;;;9.80;6.30;;;;;;;12.99;79.24;96935.52;234286;215;149378;-57
2023/10/27 20:42:24;;;;;;;9.70;5.90;;;;;;;12.95;79.26;96943.07;234319;215;138907;-54
2023/10/27 20:47:28;;;;;;;8.10;6.10;;;;;;;12.87;79.42;96955.08;234228;215;138501;-56
2023/10/27 20:52:31;;;;;;;10.30;6.20;;;;;;;12.91;79.64;96957.17;234288;215;150037;-58
2023/10/27 20:57:34;;;;;;;9.30;6.80;;;;;;;12.91;79.53;96964.45;234224;215;140507;-57
2023/10/27 21:02:38;;;;;;;8.10;5.20;;;;;;;12.88;79.71;96978.27;234368;215;137543;-54
2023/10/27 21:07:42;;;;;;;6.80;5.20;;;;;;;12.85;79.42;96978.08;234215;215;149638;-56
2023/10/27 21:12:46;;;;;;;7.20;5.20;;;;;;;12.81;79.57;96985.11;234269;215;139309;-55
2023/10/27 21:17:49;;;;;;;6.60;4.90;;;;;;;12.84;79.49;96988.73;234268;215;137792;-55
2023/10/27 21:22:52;;;;;;;6.10;5.20;;;;;;;12.93;79.36;96997.55;234284;215;149896;-56
2023/10/27 21:27:55;;;;;;;6.60;5.30;;;;;;;12.96;78.93;97004.02;234436;215;139849;-56
2023/10/27 21:32:58;;;;;;;6.60;5.30;;;;;;;12.92;78.86;97014.02;234205;215;138215;-56
2023/10/27 21:38:03;;;;;;;7.30;5.80;;;;;;;12.87;79.09;97020.06;234239;215;149834;-58
2023/10/27 21:43:07;;;;;;;6.80;5.40;;;;;;;12.81;79.41;97026.00;233702;215;139341;-57
2023/10/27 21:48:12;;;;;;;7.90;5.80;;;;;;;12.81;79.70;97028.67;234458;215;138157;-57
2023/10/27 21:53:16;;;;;;;9.40;6.30;;;;;;;12.82;79.83;97031.95;234361;215;150604;-55
2023/10/27 21:58:19;;;;;;;8.70;6.50;;;;;;;12.82;79.84;97033.81;234286;215;138930;-55
2023/10/27 22:03:25;;;;;;;8.00;6.80;;;;;;;12.82;79.83;97040.36;234358;215;137133;-53
2023/10/27 22:08:29;;;;;;;9.30;7.00;;;;;;;12.81;79.87;97048.56;234328;215;150362;-53
2023/10/27 22:13:32;;;;;;;8.50;6.10;;;;;;;12.80;79.84;97057.80;233875;215;139702;-55
2023/10/27 22:18:35;;;;;;;7.60;6.10;;;;;;;12.82;79.99;97054.20;234294;215;139831;-55
2023/10/27 22:23:40;;;;;;;9.10;6.00;;;;;;;12.90;79.93;97064.55;234441;215;150405;-55
2023/10/27 22:28:43;;;;;;;8.00;5.70;;;;;;;12.97;79.67;97069.00;234357;215;138812;-52
2023/10/27 22:33:47;;;;;;;9.90;6.00;;;;;;;12.94;79.69;97072.50;234301;215;137690;-56
2023/10/27 22:38:50;;;;;;;10.20;5.80;;;;;;;12.92;79.70;97082.31;234282;215;150406;-53
2023/10/27 22:43:53;;;;;;;8.80;6.20;;;;;;;12.89;79.88;97088.52;234313;215;139983;-52
2023/10/27 22:48:56;;;;;;;9.80;6.60;;;;;;;12.92;79.81;97093.34;234408;215;138615;-55
2023/10/27 22:53:59;;;;;;;9.00;6.50;;;;;;;12.94;79.65;97094.39;234438;215;150203;-53
2023/10/27 22:59:03;;;;;;;8.70;5.80;;;;;;;12.90;79.80;97097.16;234358;215;139118;-56
2023/10/27 23:04:06;;;;;;;8.00;5.70;;;;;;;12.82;79.67;97105.66;234396;215;138078;-55
2023/10/27 23:09:09;;;;;;;7.20;5.50;;;;;;;12.75;79.92;97107.95;234057;215;150770;-52
2023/10/27 23:14:12;;;;;;;7.60;5.50;;;;;;;12.73;79.91;97113.16;234235;215;139299;-54
2023/10/27 23:19:16;;;;;;;6.30;5.20;;;;;;;12.76;79.97;97125.10;234253;215;137432;-55
2023/10/27 23:24:19;;;;;;;10.00;5.40;;;;;;;12.81;79.83;97124.80;234389;215;149885;-58
2023/10/27 23:29:22;;;;;;;7.20;5.40;;;;;;;12.83;79.64;97126.16;234185;215;138914;-55
2023/10/27 23:34:25;;;;;;;8.00;6.00;;;;;;;12.84;79.48;97128.77;234134;215;137090;-56